Latest Coastal Weather Observations for Onslow Airport

IDW60701

Issued at 10:25 pm WST Monday 22 September 2014 (issued every 10 minutes, with the page automatically refreshed every 10 minutes)

About coastal observations | Map of coastal stations | Coastal observations for WA | Marine services | Other Formats
Station Details ID: 005017 Name: ONSLOW AIRPORT Lat: -21.67 Lon: 115.11 Height: 10.5 m
Data from the previous 72 hours. | See also: Recent months at Onslow Airport
Date/Time
WST
Temp

°C
Wind Pressure Rain
since 9am
mm
Weather Cloud Vis
km
Sea
Height
m
Swell
Dir
 
Speed
knots
Gust
knots
hPa Trend Height
m
Period
s
Dir
22/10:00pm 20.4 S 10 14 1018.5 - 0.0 - - - - - - -
22/09:30pm 21.0 S 12 16 1018.4 - 0.0 - - - - - - -
22/09:00pm 21.7 S 12 15 1018.4 - 0.0 - - - - - - -
22/08:30pm 22.2 S 12 15 1018.3 - 0.0 - - - - - - -
22/08:00pm 22.9 S 14 16 1018.2 - 0.0 - - - - - - -
22/07:30pm 23.3 S 15 19 1017.8 - 0.0 - - - - - - -
22/07:00pm 23.8 S 16 21 1017.4 - 0.0 - - - - - - -
22/06:30pm 24.5 S 18 23 1016.9 - 0.0 - - - - - - -
22/06:00pm 25.3 SSE 18 23 1016.5 - 0.0 - - - - - - -
22/05:30pm 26.2 S 19 25 1016.2 - 0.0 - - - - - - -
22/05:00pm 27.0 SSE 20 26 1016.2 - 0.0 - - - - - - -
22/04:30pm 27.7 S 21 25 1016.2 - 0.0 - - - - - - -
22/04:00pm 27.9 S 22 27 1016.3 - 0.0 - - - - - - -
22/03:39pm 28.1 S 21 31 1016.4 - 0.0 - - - - - - -
22/03:30pm 27.8 S 21 27 1016.4 - 0.0 - - - - - - -
22/03:00pm 28.2 S 21 25 1016.4 - 0.0 - - - - - - -
22/02:30pm 28.1 S 20 31 1016.7 - 0.0 - - - - - - -
22/02:22pm 28.9 S 19 31 1016.7 - 0.0 - - - - - - -
22/02:00pm 27.8 S 19 25 1016.9 - 0.0 - - - - - - -
22/01:30pm 28.0 S 20 26 1017.3 - 0.0 - - - - - - -
22/01:00pm 27.3 S 20 27 1017.7 - 0.0 - - - - - - -
22/12:30pm 27.0 S 19 24 1018.2 - 0.0 - - - - - - -
22/12:00pm 25.3 S 21 29 1018.9 - 0.0 - - - - - - -
22/11:30am 25.3 S 21 26 1019.4 - 0.0 - - - - - - -
22/11:00am 24.0 S 20 27 1019.9 - 0.0 - - - - - - -
22/10:30am 23.2 S 20 25 1020.3 - 0.0 - - - - - - -
22/10:00am 22.2 S 21 28 1020.7 - 0.0 - - - - - - -
22/09:30am 21.3 S 22 29 1021.1 - 0.0 - - - - - - -
22/09:00am 20.7 S 23 29 1021.3 - 0.0 - - - - - - -
22/08:30am 20.0 S 19 27 1021.5 - 0.0 - - - - - - -
22/08:00am 19.3 S 19 24 1021.4 - 0.0 - - - - - - -
22/07:30am 18.0 S 16 19 1021.4 - 0.0 - - - - - - -
22/07:00am 16.7 S 14 18 1021.0 - 0.0 - - - - - - -
22/06:30am 15.7 S 12 16 1020.8 - 0.0 - - - - - - -
22/06:00am 15.7 S 13 16 1020.5 - 0.0 - - - - - - -
22/05:30am 16.1 S 13 16 1020.1 - 0.0 - - - - - - -
22/05:00am 16.2 S 13 16 1019.7 - 0.0 - - - - - - -
22/04:30am 16.3 S 11 15 1019.4 - 0.0 - - - - - - -
22/04:00am 16.6 S 12 15 1019.3 - 0.0 - - - - - - -
22/03:30am 16.8 S 11 14 1019.3 - 0.0 - - - - - - -
22/03:00am 17.0 S 11 14 1019.3 - 0.0 - - - - - - -
22/02:30am 17.4 S 12 15 1019.3 - 0.0 - - - - - - -
22/02:00am 17.7 S 14 19 1019.6 - 0.0 - - - - - - -
22/01:30am 17.9 S 13 16 1019.8 - 0.0 - - - - - - -
22/01:00am 18.4 S 17 22 1019.8 - 0.0 - - - - - - -
22/12:30am 18.7 S 18 25 1019.9 - 0.0 - - - - - - -
22/12:00am 18.9 S 16 21 1020.0 - 0.0 - - - - - - -
 
Date/Time
WST
Temp

°C
Wind Pressure Rain
since 9am
mm
Weather Cloud Vis
km
Sea
Height
m
Swell
Dir
 
Speed
knots
Gust
knots
hPa Trend Height
m
Period
s
Dir
21/11:30pm 19.6 SSW 20 27 1020.0 - 0.0 - - - - - - -
21/11:00pm 20.1 SSW 24 31 1019.8 - 0.0 - - - - - - -
21/10:49pm 20.3 SSW 22 32 1019.7 - 0.0 - - - - - - -
21/10:30pm 20.4 SSW 22 27 1019.5 - 0.0 - - - - - - -
21/10:00pm 20.7 SSW 21 28 1019.4 - 0.0 - - - - - - -
21/09:48pm 21.0 SSW 21 31 1019.5 - 0.0 - - - - - - -
21/09:30pm 21.5 SSW 23 29 1019.2 - 0.0 - - - - - - -
21/09:00pm 22.3 SW 23 29 1018.7 - 0.0 - - - - - - -
21/08:30pm 22.9 SW 23 30 1018.3 - 0.0 - - - - - - -
21/08:00pm 24.1 WSW 16 28 1017.6 - 0.0 - - - - - - -
21/07:59pm 24.2 WSW 15 26 1017.6 - 0.0 - - - - - - -
21/07:30pm 24.1 WSW 15 20 1017.2 - 0.0 - - - - - - -
21/07:00pm 24.3 WSW 15 21 1016.9 - 0.0 - - - - - - -
21/06:30pm 24.2 WSW 16 22 1016.7 - 0.0 - - - - - - -
21/06:00pm 24.6 W 19 26 1016.4 - 0.0 - - - - - - -
21/05:30pm 25.5 W 17 24 1016.1 - 0.0 - - - - - - -
21/05:00pm 26.1 W 19 26 1015.8 - 0.0 - - - - - - -
21/04:30pm 26.5 W 21 29 1015.7 - 0.0 - - - - - - -
21/04:00pm 27.2 W 20 26 1015.7 - 0.0 - - - - - - -
21/03:30pm 27.3 W 21 28 1015.8 - 0.0 - - - - - - -
21/03:00pm 27.3 W 21 26 1015.8 - 0.0 - - - - - - -
21/02:30pm 27.0 W 23 29 1015.8 - 0.0 - - - - - - -
21/02:00pm 26.9 W 25 31 1015.8 - 0.0 - - - - - - -
21/01:30pm 27.2 W 23 29 1016.0 - 0.0 - - - - - - -
21/01:00pm 27.1 W 20 25 1016.3 - 0.0 - - - - - - -
21/12:30pm 26.8 W 19 24 1016.7 - 0.0 - - - - - - -
21/12:00pm 26.9 W 19 25 1017.0 - 0.0 - - - - - - -
21/11:30am 26.7 W 18 24 1017.6 - 0.0 - - - - - - -
21/11:00am 26.4 WNW 15 19 1018.1 - 0.0 - - - - - - -
21/10:30am 26.3 WNW 13 16 1018.4 - 0.0 - - - - - - -
21/10:00am 26.2 WNW 11 13 1018.9 - 0.0 - - - - - - -
21/09:30am 26.3 WNW 9 14 1019.0 - 0.0 - - - - - - -
21/09:00am 26.0 WNW 8 11 1019.0 - 0.0 - - - - - - -
21/08:30am 25.7 WNW 8 11 1018.8 - 0.0 - - - - - - -
21/08:00am 24.5 WNW 9 12 1018.7 - 0.0 - - - - - - -
21/07:30am 23.7 WNW 8 10 1018.4 - 0.0 - - - - - - -
21/07:00am 22.0 WNW 6 6 1018.1 - 0.0 - - - - - - -
21/06:30am 20.5 W 6 7 1017.7 - 0.0 - - - - - - -
21/06:00am 20.1 WNW 6 6 1017.4 - 0.0 - - - - - - -
21/05:30am 20.6 WNW 6 6 1016.9 - 0.0 - - - - - - -
21/05:00am 20.6 WNW 6 7 1016.7 - 0.0 - - - - - - -
21/04:30am 20.7 NW 7 8 1016.4 - 0.0 - - - - - - -
21/04:00am 20.5 WNW 6 6 1016.3 - 0.0 - - - - - - -
21/03:30am 20.5 WNW 6 7 1016.3 - 0.0 - - - - - - -
21/03:00am 20.6 W 7 8 1016.2 - 0.0 - - - - - - -
21/02:30am 20.5 W 7 9 1016.3 - 0.0 - - - - - - -
21/02:00am 20.9 W 7 9 1016.2 - 0.0 - - - - - - -
21/01:30am 21.1 WSW 6 8 1016.2 - 0.0 - - - - - - -
21/01:00am 21.4 WSW 7 9 1016.3 - 0.0 - - - - - - -
21/12:30am 21.8 W 7 9 1016.5 - 0.0 - - - - - - -
21/12:00am 22.4 W 9 10 1016.6 - 0.0 - - - - - - -
 
Date/Time
WST
Temp

°C
Wind Pressure Rain
since 9am
mm
Weather Cloud Vis
km
Sea
Height
m
Swell
Dir
 
Speed
knots
Gust
knots
hPa Trend Height
m
Period
s
Dir
20/11:30pm 22.6 W 9 11 1016.9 - 0.0 - - - - - - -
20/11:00pm 22.4 W 9 10 1017.1 - 0.0 - - - - - - -
20/10:30pm 22.4 WNW 8 9 1017.2 - 0.0 - - - - - - -
20/10:00pm 22.1 WNW 7 8 1017.2 - 0.0 - - - - - - -
20/09:30pm 22.2 W 7 7 1017.1 - 0.0 - - - - - - -
20/09:00pm 22.9 W 7 8 1017.1 - 0.0 - - - - - - -
20/08:30pm 22.8 WNW 7 8 1017.0 - 0.0 - - - - - - -
20/08:00pm 23.4 WNW 7 8 1016.6 - 0.0 - - - - - - -
20/07:30pm 23.9 WNW 7 8 1016.2 - 0.0 - - - - - - -
20/07:00pm 24.5 WNW 6 8 1015.8 - 0.0 - - - - - - -
20/06:30pm 25.2 WNW 7 7 1015.2 - 0.0 - - - - - - -
20/06:00pm 27.0 WNW 6 7 1014.8 - 0.0 - - - - - - -
20/05:30pm 29.4 WNW 6 9 1014.3 - 0.0 - - - - - - -
20/05:00pm 30.4 WNW 8 11 1014.0 - 0.0 - - - - - - -
20/04:30pm 31.1 WNW 10 12 1014.0 - 0.0 - - - - - - -
20/04:00pm 31.3 NW 10 13 1013.8 - 0.0 - - - - - - -
20/03:30pm 31.9 NW 10 14 1013.7 - 0.0 - - - - - - -
20/03:00pm 32.5 N 10 13 1014.1 - 0.0 - - - - - - -
20/02:30pm 32.7 N 10 14 1014.3 - 0.0 - - - - - - -
20/02:00pm 32.8 NNW 9 13 1014.6 - 0.0 - - - - - - -
20/01:30pm 32.6 N 10 13 1014.8 - 0.0 - - - - - - -
20/01:00pm 33.0 NNW 10 14 1015.1 - 0.0 - - - - - - -
20/12:30pm 33.4 N 9 12 1015.3 - 0.0 - - - - - - -
20/12:00pm 33.2 NNE 7 11 1015.8 - 0.0 - - - - - - -
20/11:30am 33.1 NE 6 9 1016.1 - 0.0 - - - - - - -
20/11:00am 32.7 E 5 8 1016.5 - 0.0 - - - - - - -
20/10:30am 32.2 ENE 6 8 1016.8 - 0.0 - - - - - - -
20/10:00am 30.6 E 6 7 1016.9 - 0.0 - - - - - - -
20/09:30am 29.9 SE 7 9 1017.1 - 0.0 - - - - - - -
20/09:00am 28.0 ESE 9 10 1017.0 - 0.0 - - - - - - -
20/08:30am 26.7 ESE 7 10 1016.9 - 0.0 - - - - - - -
20/08:00am 24.8 E 8 9 1016.7 - 0.0 - - - - - - -
20/07:30am 22.2 E 5 7 1016.5 - 0.0 - - - - - - -
20/07:00am 19.7 ESE 5 6 1016.2 - 0.0 - - - - - - -
20/06:30am 17.7 ESE 6 8 1015.6 - 0.0 - - - - - - -
20/06:00am 17.8 SE 7 9 1015.2 - 0.0 - - - - - - -
20/05:30am 17.7 SSE 8 9 1014.7 - 0.0 - - - - - - -
20/05:00am 17.3 SSE 6 7 1014.7 - 0.0 - - - - - - -
20/04:30am 17.1 S 7 10 1014.6 - 0.0 - - - - - - -
20/04:00am 17.9 S 7 8 1014.7 - 0.0 - - - - - - -
20/03:30am 18.1 S 7 8 1014.6 - 0.0 - - - - - - -
20/03:00am 18.4 S 7 8 1014.9 - 0.0 - - - - - - -
20/02:30am 18.8 S 7 8 1015.2 - 0.0 - - - - - - -
20/02:00am 19.4 SSW 7 8 1015.4 - 0.0 - - - - - - -
20/01:30am 19.4 SW 6 8 1015.7 - 0.0 - - - - - - -
20/01:00am 19.6 SW 7 8 1016.0 - 0.0 - - - - - - -
20/12:30am 20.3 WSW 7 7 1016.3 - 0.0 - - - - - - -
20/12:00am 20.3 WSW 7 9 1016.5 - 0.0 - - - - - - -
 
Date/Time
WST
Temp

°C
Wind Pressure Rain
since 9am
mm
Weather Cloud Vis
km
Sea
Height
m
Swell
Dir
 
Speed
knots
Gust
knots
hPa Trend Height
m
Period
s
Dir
19/11:30pm 20.9 W 7 8 1016.5 - 0.0 - - - - - - -
19/11:00pm 21.2 W 7 8 1016.6 - 0.0 - - - - - - -
19/10:30pm 21.0 W 6 7 1016.9 - 0.0 - - - - - - -

Other Formats:

Comma delimited format used in spreadsheet applications
http://www.bom.gov.au/fwo/IDW60701/IDW60701.95305.axf

JavaScript Object Notation format (JSON) in row-major order
http://www.bom.gov.au/fwo/IDW60701/IDW60701.95305.json